Time;durP1;ratioP1;P1;durP2;ratioP2;P2;SDS_P1;SDS_P2;PMS_P1;PMS_P2;Temp;Humidity;BMP_temperature;BMP_pressure;BME280_temperature;BME280_humidity;BME280_pressure;Samples;Min_cycle;Max_cycle;Signal;HPM_P1;HPM_P2
2022/04/18 00:00:26;;;;;;;10.50;5.20;;;;;;;3.03;68.54;101636.02;105112;1271;73063;-69
2022/04/18 00:02:53;;;;;;;7.60;4.30;;;;;;;3.01;68.51;101634.78;105189;1271;60575;-70
2022/04/18 00:05:19;;;;;;;9.90;5.40;;;;;;;3.00;68.56;101631.02;105189;1271;62043;-70
2022/04/18 00:07:46;;;;;;;7.90;5.00;;;;;;;2.98;68.62;101632.54;105207;1271;75137;-72
2022/04/18 00:10:13;;;;;;;11.00;5.60;;;;;;;2.96;68.96;101633.73;105209;1271;73722;-69
2022/04/18 00:12:39;;;;;;;9.40;6.10;;;;;;;2.95;69.11;101632.75;105267;1271;60875;-74
2022/04/18 00:15:07;;;;;;;13.20;7.40;;;;;;;2.93;69.03;101626.20;105326;1271;60423;-72
2022/04/18 00:17:33;;;;;;;12.50;7.10;;;;;;;2.92;69.17;101625.45;105300;1271;60433;-71
2022/04/18 00:20:00;;;;;;;10.80;5.60;;;;;;;2.90;69.23;101631.46;105315;1271;74302;-73
2022/04/18 00:22:27;;;;;;;12.30;6.70;;;;;;;2.88;69.45;101630.02;105167;1271;71432;-71
2022/04/18 00:24:53;;;;;;;9.00;6.10;;;;;;;2.86;69.47;101628.77;105231;1271;74185;-73
2022/04/18 00:27:20;;;;;;;7.70;5.00;;;;;;;2.83;69.35;101625.77;105181;1271;61550;-71
2022/04/18 00:29:50;;;;;;;10.60;5.20;;;;;;;2.82;69.76;101621.16;105149;1271;60817;-71
2022/04/18 00:32:17;;;;;;;10.00;6.20;;;;;;;2.81;70.03;101621.77;104978;1274;73083;-73
2022/04/18 00:34:44;;;;;;;12.10;6.20;;;;;;;2.79;70.16;101616.61;105203;1274;71359;-72
2022/04/18 00:37:16;;;;;;;10.70;5.60;;;;;;;2.79;70.37;101615.80;105296;1271;72970;-68
2022/04/18 00:39:43;;;;;;;12.10;6.00;;;;;;;2.77;70.52;101613.95;105129;1271;60418;-71
2022/04/18 00:42:10;;;;;;;9.90;6.20;;;;;;;2.76;70.50;101611.96;105211;1271;60796;-69
2022/04/18 00:44:36;;;;;;;15.80;7.70;;;;;;;2.75;70.69;101613.43;105052;1271;61724;-73
2022/04/18 00:47:03;;;;;;;10.70;6.30;;;;;;;2.74;70.70;101613.52;105264;1271;72242;-71
2022/04/18 00:49:30;;;;;;;13.40;5.80;;;;;;;2.74;70.88;101613.52;105282;1271;73176;-71
2022/04/18 00:51:57;;;;;;;11.40;6.50;;;;;;;2.74;70.80;101610.36;105021;1271;61842;-70
2022/04/18 00:54:24;;;;;;;12.10;6.10;;;;;;;2.72;70.74;101610.83;105079;1271;61595;-70
2022/04/18 00:56:53;;;;;;;14.20;6.90;;;;;;;2.70;70.43;101605.92;105126;1271;74122;-73
2022/04/18 00:59:21;;;;;;;14.50;6.00;;;;;;;2.67;70.66;101604.00;105175;1271;70347;-73
2022/04/18 01:01:48;;;;;;;12.40;6.70;;;;;;;2.63;70.61;101598.34;105368;1271;71957;-71
2022/04/18 01:04:15;;;;;;;9.80;6.10;;;;;;;2.60;70.88;101596.40;105365;1271;60577;-73
2022/04/18 01:06:42;;;;;;;13.90;6.80;;;;;;;2.58;70.95;101594.47;105390;1271;61576;-71
2022/04/18 01:09:08;;;;;;;13.20;6.40;;;;;;;2.56;71.08;101589.34;105191;1271;74591;-72
2022/04/18 01:11:35;;;;;;;15.00;6.60;;;;;;;2.54;71.41;101587.73;105065;1272;72169;-72
2022/04/18 01:14:02;;;;;;;12.80;6.50;;;;;;;2.53;71.50;101587.10;105081;1271;74166;-72
2022/04/18 01:16:29;;;;;;;13.70;7.40;;;;;;;2.50;71.82;101579.27;105033;1271;61658;-70
2022/04/18 01:18:57;;;;;;;10.60;5.90;;;;;;;2.51;71.94;101576.45;105233;1271;61620;-69
2022/04/18 01:21:24;;;;;;;11.40;6.50;;;;;;;2.49;71.79;101572.02;105209;1271;75470;-72
2022/04/18 01:23:53;;;;;;;14.00;7.10;;;;;;;2.47;71.96;101567.27;105083;1271;71792;-71
2022/04/18 01:29:06;;;;;;;;;;;;;;;2.42;72.11;101571.60;105206;1271;60449;-70
2022/04/18 01:31:38;;;;;;;9.90;5.70;;;;;;;2.38;72.30;101567.81;105300;1271;60532;-72
2022/04/18 01:34:07;;;;;;;11.40;6.70;;;;;;;2.34;72.51;101565.11;105181;1271;74860;-72
2022/04/18 01:36:34;;;;;;;9.80;6.80;;;;;;;2.31;72.48;101561.67;105367;1271;71583;-71
2022/04/18 01:39:00;;;;;;;17.40;8.90;;;;;;;2.25;72.52;101555.25;105394;1271;73151;-71
2022/04/18 01:41:27;;;;;;;16.60;8.20;;;;;;;2.19;72.57;101555.29;105257;1271;60522;-73
2022/04/18 01:43:53;;;;;;;11.10;6.80;;;;;;;2.13;72.77;101551.46;105318;1271;60463;-71
2022/04/18 01:46:20;;;;;;;11.30;6.50;;;;;;;2.10;73.04;101554.85;105007;1271;75129;-69
2022/04/18 01:48:51;;;;;;;13.80;7.70;;;;;;;2.05;73.09;101550.97;105395;1271;72441;-73
2022/04/18 01:51:18;;;;;;;7.70;5.10;;;;;;;2.01;73.24;101547.16;105188;1271;71526;-71
2022/04/18 01:53:46;;;;;;;12.30;5.90;;;;;;;2.00;73.81;101547.27;105317;1271;60480;-71
2022/04/18 01:56:14;;;;;;;9.50;5.70;;;;;;;1.98;74.16;101547.37;105196;1271;60775;-73
2022/04/18 01:58:40;;;;;;;13.40;6.70;;;;;;;1.95;74.12;101549.46;105229;1271;75272;-70
2022/04/18 02:01:07;;;;;;;9.70;5.00;;;;;;;1.93;74.44;101554.47;105250;1271;71358;-73
2022/04/18 02:03:33;;;;;;;12.50;6.20;;;;;;;1.92;75.13;101554.39;105312;1271;72838;-72
2022/04/18 02:06:00;;;;;;;11.70;6.60;;;;;;;1.91;75.15;101551.30;105308;1271;60485;-71
2022/04/18 02:08:27;;;;;;;14.20;7.70;;;;;;;1.88;75.40;101549.58;105140;1271;61781;-76
2022/04/18 02:10:54;;;;;;;12.30;6.50;;;;;;;1.85;75.54;101545.92;105180;1271;72711;-73
2022/04/18 02:13:21;;;;;;;11.50;5.90;;;;;;;1.82;75.84;101544.02;105168;1271;71715;-74
2022/04/18 02:15:50;;;;;;;11.90;6.80;;;;;;;1.80;76.29;101545.20;105077;1274;73167;-70
2022/04/18 02:18:16;;;;;;;12.60;7.10;;;;;;;1.77;76.44;101542.45;105158;1271;60423;-69
2022/04/18 02:20:44;;;;;;;10.30;5.40;;;;;;;1.74;76.52;101541.23;105248;1271;60591;-70
2022/04/18 02:23:10;;;;;;;12.90;5.90;;;;;;;1.72;76.79;101539.77;105247;1271;74568;-70
2022/04/18 02:25:37;;;;;;;10.10;6.00;;;;;;;1.69;76.85;101538.91;105310;1271;72200;-71
2022/04/18 02:28:03;;;;;;;11.50;6.00;;;;;;;1.67;76.97;101535.90;105333;1271;61589;-70
2022/04/18 02:30:30;;;;;;;11.30;6.40;;;;;;;1.64;77.05;101527.04;105273;1271;61380;-73
2022/04/18 02:32:57;;;;;;;12.30;7.40;;;;;;;1.61;77.32;101527.52;105285;1270;60561;-72
2022/04/18 02:35:25;;;;;;;10.80;7.40;;;;;;;1.58;77.13;101525.68;105122;1272;74330;-72
2022/04/18 02:37:53;;;;;;;10.70;6.20;;;;;;;1.54;77.21;101527.67;105121;1271;71795;-72
2022/04/18 02:40:21;;;;;;;9.30;6.00;;;;;;;1.50;77.46;101523.20;104952;1271;72976;-72
2022/04/18 02:42:48;;;;;;;13.60;6.80;;;;;;;1.46;77.69;101523.78;105237;1271;61918;-69
2022/04/18 02:45:18;;;;;;;9.90;6.60;;;;;;;1.41;77.71;101524.28;105306;1271;60359;-71
2022/04/18 02:47:46;;;;;;;12.50;7.10;;;;;;;1.36;77.67;101525.64;104933;1271;72608;-71
2022/04/18 02:50:13;;;;;;;12.10;6.30;;;;;;;1.30;78.04;101529.48;105277;1271;71348;-72
2022/04/18 02:52:41;;;;;;;13.00;7.80;;;;;;;1.26;78.46;101531.35;105142;1271;73999;-73
2022/04/18 02:55:08;;;;;;;10.90;6.50;;;;;;;1.20;78.53;101529.73;104976;1271;61130;-69
2022/04/18 02:57:35;;;;;;;13.60;7.20;;;;;;;1.15;78.64;101526.55;105170;1271;61194;-70
2022/04/18 03:00:03;;;;;;;10.00;6.30;;;;;;;1.11;78.77;101523.51;105207;1271;74925;-71
2022/04/18 03:02:29;;;;;;;10.90;5.90;;;;;;;1.07;79.06;101520.25;105194;1271;72459;-72
2022/04/18 03:04:56;;;;;;;10.00;6.00;;;;;;;1.04;79.49;101516.96;105150;1271;72984;-70
2022/04/18 03:07:26;;;;;;;9.40;5.70;;;;;;;1.02;79.45;101517.78;105190;1271;61231;-70
2022/04/18 03:09:52;;;;;;;11.90;6.00;;;;;;;0.98;79.58;101516.41;105315;1271;61269;-71
2022/04/18 03:12:19;;;;;;;11.90;6.20;;;;;;;0.95;79.83;101511.38;105136;1271;61237;-72
2022/04/18 03:14:46;;;;;;;13.90;7.40;;;;;;;0.93;79.96;101509.46;105360;1271;71293;-71
2022/04/18 03:17:12;;;;;;;12.50;6.60;;;;;;;0.89;80.09;101512.30;105007;1271;61309;-68
2022/04/18 03:19:39;;;;;;;8.90;6.30;;;;;;;0.84;80.15;101507.71;105293;1271;61257;-69
2022/04/18 03:22:06;;;;;;;10.10;5.80;;;;;;;0.80;80.51;101506.00;105191;1271;61219;-71
2022/04/18 03:24:34;;;;;;;12.50;6.10;;;;;;;0.76;80.68;101503.31;105208;1271;75938;-72
2022/04/18 03:27:05;;;;;;;11.60;6.20;;;;;;;0.72;81.00;101498.69;105203;1271;72375;-71
2022/04/18 03:29:32;;;;;;;9.50;6.50;;;;;;;0.68;81.37;101498.57;105248;1271;73207;-71
2022/04/18 03:31:59;;;;;;;10.50;6.30;;;;;;;0.65;81.38;101494.06;105345;1271;62286;-71
2022/04/18 03:34:26;;;;;;;10.20;6.20;;;;;;;0.60;81.49;101496.25;105290;1271;61295;-74
2022/04/18 03:39:56;;;;;;;10.80;5.70;;;;;;;0.53;82.08;101496.84;105312;1271;71419;-73
2022/04/18 03:42:31;;;;;;;9.60;5.40;;;;;;;0.50;82.42;101496.50;105049;1274;73572;-72
2022/04/18 03:45:00;;;;;;;8.80;5.60;;;;;;;0.48;82.68;101493.45;105364;1271;61355;-72
2022/04/18 03:47:27;;;;;;;10.80;5.20;;;;;;;0.46;82.67;101490.64;105189;1271;62008;-73
2022/04/18 03:49:54;;;;;;;12.50;7.40;;;;;;;0.45;83.01;101491.58;105180;1272;74935;-73
2022/04/18 03:52:23;;;;;;;11.20;5.80;;;;;;;0.44;83.19;101493.39;105249;1271;71414;-71
2022/04/18 03:54:50;;;;;;;10.20;6.00;;;;;;;0.42;83.10;101491.40;105168;1273;74498;-72
2022/04/18 03:57:17;;;;;;;12.40;5.90;;;;;;;0.41;83.37;101486.59;105092;1271;61717;-72
2022/04/18 03:59:45;;;;;;;9.80;5.60;;;;;;;0.40;83.36;101484.36;105045;1271;61342;-70
2022/04/18 04:02:13;;;;;;;13.60;8.30;;;;;;;0.39;83.48;101484.73;104885;1274;76668;-74
2022/04/18 04:04:41;;;;;;;10.20;5.30;;;;;;;0.38;83.39;101485.35;104890;1274;71458;-72
2022/04/18 04:07:08;;;;;;;11.20;5.70;;;;;;;0.36;83.47;101484.75;105169;1271;73140;-72
2022/04/18 04:09:36;;;;;;;14.50;6.60;;;;;;;0.36;83.64;101483.39;105120;1271;61616;-72
2022/04/18 04:12:04;;;;;;;11.30;5.70;;;;;;;0.34;83.80;101482.59;105289;1271;61513;-70
2022/04/18 04:14:30;;;;;;;10.90;6.10;;;;;;;0.34;83.97;101482.11;105153;1271;74928;-72
2022/04/18 04:16:58;;;;;;;9.90;5.70;;;;;;;0.32;84.02;101481.84;105203;1271;61363;-70
2022/04/18 04:19:24;;;;;;;11.00;7.10;;;;;;;0.31;84.10;101478.95;105320;1271;74102;-71
2022/04/18 04:21:51;;;;;;;9.50;5.60;;;;;;;0.29;83.96;101477.15;105165;1270;61808;-72
2022/04/18 04:24:18;;;;;;;9.30;6.00;;;;;;;0.27;83.93;101476.40;105111;1272;61466;-73
2022/04/18 04:26:44;;;;;;;13.80;7.10;;;;;;;0.25;84.02;101479.14;105355;1271;75073;-73
2022/04/18 04:29:11;;;;;;;11.50;7.30;;;;;;;0.23;83.97;101480.15;105363;1271;72054;-71
2022/04/18 04:31:38;;;;;;;11.70;6.10;;;;;;;0.21;84.05;101476.06;105334;1271;72979;-72
2022/04/18 04:34:05;;;;;;;11.20;6.40;;;;;;;0.20;84.31;101476.10;105180;1271;61970;-74
2022/04/18 04:36:38;;;;;;;13.40;6.90;;;;;;;0.21;84.44;101473.65;105338;1271;61263;-70
2022/04/18 04:39:04;;;;;;;14.40;8.00;;;;;;;0.20;84.33;101475.94;105417;1271;75093;-71
2022/04/18 04:41:31;;;;;;;13.70;8.60;;;;;;;0.21;84.38;101470.14;105073;1272;73163;-74
2022/04/18 04:43:58;;;;;;;14.50;7.70;;;;;;;0.22;84.48;101466.11;104996;1271;72027;-73
2022/04/18 04:46:28;;;;;;;17.70;8.50;;;;;;;0.23;84.55;101465.55;104993;1272;62073;-74
2022/04/18 04:48:55;;;;;;;17.40;8.10;;;;;;;0.25;84.60;101465.08;105206;1271;61346;-71
2022/04/18 04:51:21;;;;;;;13.90;7.40;;;;;;;0.26;84.66;101463.60;105144;1271;75917;-72
2022/04/18 04:53:48;;;;;;;14.30;9.10;;;;;;;0.29;84.59;101463.08;105183;1271;71371;-72
2022/04/18 04:56:17;;;;;;;15.10;8.30;;;;;;;0.33;84.62;101464.80;105157;1271;73001;-73
2022/04/18 04:58:44;;;;;;;14.10;8.30;;;;;;;0.36;84.58;101461.98;105195;1271;62610;-72
2022/04/18 05:01:10;;;;;;;13.70;7.90;;;;;;;0.39;84.61;101461.29;105111;1272;61894;-72
2022/04/18 05:03:40;;;;;;;14.50;8.20;;;;;;;0.44;84.61;101460.70;105256;1271;74970;-70
2022/04/18 05:06:07;;;;;;;13.20;6.40;;;;;;;0.49;84.75;101462.45;105251;1271;71019;-71
2022/04/18 05:08:34;;;;;;;16.10;8.30;;;;;;;0.55;84.88;101460.67;105004;1274;73193;-69
2022/04/18 05:11:01;;;;;;;14.90;8.60;;;;;;;0.62;84.75;101463.91;105062;1271;61350;-72
2022/04/18 05:13:27;;;;;;;16.60;9.30;;;;;;;0.69;84.71;101463.49;105158;1271;61680;-71
2022/04/18 05:15:54;;;;;;;12.60;8.70;;;;;;;0.77;84.48;101464.62;105114;1274;76435;-72
2022/04/18 05:18:21;;;;;;;14.60;8.20;;;;;;;0.85;84.42;101462.40;105341;1270;71708;-73
2022/04/18 05:20:47;;;;;;;15.10;8.90;;;;;;;0.95;84.57;101464.58;105263;1271;74666;-73
2022/04/18 05:23:20;;;;;;;15.50;9.00;;;;;;;1.05;84.54;101458.52;105220;1271;61216;-73
2022/04/18 05:25:46;;;;;;;16.30;8.90;;;;;;;1.17;84.47;101461.27;104896;1271;61167;-75
2022/04/18 05:28:13;;;;;;;17.70;8.90;;;;;;;1.30;84.31;101460.53;105101;1271;61551;-72
2022/04/18 05:30:41;;;;;;;15.80;9.30;;;;;;;1.43;84.26;101461.79;105124;1270;71142;-74
2022/04/18 05:33:07;;;;;;;14.30;8.20;;;;;;;1.55;84.05;101461.67;105058;1271;74147;-72
2022/04/18 05:35:34;;;;;;;12.40;7.90;;;;;;;1.71;83.93;101461.38;105107;1272;61902;-72
2022/04/18 05:38:01;;;;;;;11.90;8.80;;;;;;;1.86;83.77;101458.65;105070;1271;61451;-72
2022/04/18 05:40:27;;;;;;;17.40;9.50;;;;;;;2.01;83.11;101460.09;105044;1271;75931;-74
2022/04/18 05:42:55;;;;;;;19.10;9.80;;;;;;;2.14;82.63;101459.09;105053;1271;71454;-71
2022/04/18 05:45:21;;;;;;;13.50;8.20;;;;;;;2.27;82.28;101463.98;105168;1271;73956;-70
2022/04/18 05:47:48;;;;;;;13.30;8.40;;;;;;;2.40;81.97;101461.91;105137;1271;62902;-70
2022/04/18 05:50:15;;;;;;;19.10;9.50;;;;;;;2.55;81.99;101462.46;105156;1271;61246;-73
2022/04/18 05:52:41;;;;;;;14.20;8.70;;;;;;;2.71;81.52;101466.98;105062;1271;61363;-70
2022/04/18 05:55:08;;;;;;;15.90;7.90;;;;;;;2.86;81.24;101466.13;105123;1271;71088;-71
2022/04/18 05:57:35;;;;;;;14.30;8.80;;;;;;;3.03;80.80;101464.59;104827;1274;73983;-70
2022/04/18 06:00:04;;;;;;;16.70;8.50;;;;;;;3.19;80.17;101466.11;105161;1271;61448;-70
2022/04/18 06:02:31;;;;;;;15.10;7.60;;;;;;;3.35;79.72;101470.60;105203;1271;61243;-69
2022/04/18 06:05:04;;;;;;;15.60;8.50;;;;;;;3.50;79.50;101474.95;105223;1271;74940;-72
2022/04/18 06:07:31;;;;;;;15.20;8.80;;;;;;;3.66;79.21;101474.13;105293;1271;71168;-70
2022/04/18 06:09:57;;;;;;;14.40;8.30;;;;;;;3.81;78.73;101472.72;105044;1271;72973;-68
2022/04/18 06:12:24;;;;;;;15.70;8.50;;;;;;;3.94;78.23;101474.05;104996;1271;61239;-74
2022/04/18 06:14:51;;;;;;;13.60;8.00;;;;;;;4.05;77.54;101477.55;104968;1271;61206;-70
2022/04/18 06:17:17;;;;;;;11.70;6.80;;;;;;;4.18;77.05;101473.29;105043;1271;61121;-69
2022/04/18 06:19:44;;;;;;;15.10;8.90;;;;;;;4.34;76.67;101475.26;105045;1271;61360;-69
2022/04/18 06:22:10;;;;;;;14.10;8.30;;;;;;;4.48;75.87;101471.42;105016;1271;72930;-71
2022/04/18 06:24:37;;;;;;;12.70;7.60;;;;;;;4.62;75.29;101469.79;105241;1271;61354;-73
2022/04/18 06:27:04;;;;;;;14.00;7.80;;;;;;;4.76;74.24;101470.49;104932;1271;61268;-74
2022/04/18 06:29:31;;;;;;;12.40;7.90;;;;;;;4.89;73.80;101471.23;105097;1271;76312;-72
2022/04/18 06:31:57;;;;;;;16.40;9.40;;;;;;;5.04;73.71;101469.38;105045;1271;61408;-73
2022/04/18 06:34:25;;;;;;;14.50;7.40;;;;;;;5.20;73.55;101467.79;104984;1271;61375;-70
2022/04/18 06:36:52;;;;;;;8.90;6.20;;;;;;;5.35;73.12;101467.66;104947;1272;62556;-73
2022/04/18 06:39:18;;;;;;;12.00;7.40;;;;;;;5.47;72.57;101466.84;105168;1271;60896;-73
2022/04/18 06:41:45;;;;;;;11.00;7.30;;;;;;;5.61;72.36;101471.02;105019;1271;74979;-70
2022/04/18 06:44:11;;;;;;;12.90;7.50;;;;;;;5.75;71.94;101466.04;104935;1271;61224;-72
2022/04/18 06:46:38;;;;;;;13.30;8.00;;;;;;;5.86;70.80;101467.44;105096;1272;72960;-73
2022/04/18 06:49:04;;;;;;;13.10;7.30;;;;;;;5.98;70.74;101467.68;105110;1271;61150;-73
2022/04/18 06:51:31;;;;;;;13.10;8.50;;;;;;;6.15;71.00;101467.91;104993;1271;61374;-73
2022/04/18 06:53:58;;;;;;;11.10;7.30;;;;;;;6.33;71.23;101464.63;104997;1271;61231;-74
2022/04/18 06:59:09;;;;;;;9.80;6.60;;;;;;;6.69;71.14;101467.25;104935;1271;74117;-72
2022/04/18 07:01:36;;;;;;;13.70;7.70;;;;;;;6.87;70.76;101467.62;104870;1271;61247;-73
2022/04/18 07:04:02;;;;;;;12.60;7.80;;;;;;;7.06;70.37;101468.31;104882;1271;62435;-72
2022/04/18 07:06:29;;;;;;;9.60;6.60;;;;;;;7.21;69.93;101461.85;105049;1274;74933;-70
2022/04/18 07:08:55;;;;;;;8.60;6.30;;;;;;;7.38;69.70;101467.08;104864;1271;61233;-71
2022/04/18 07:11:22;;;;;;;14.30;7.80;;;;;;;7.54;69.12;101469.17;104956;1271;73659;-71
2022/04/18 07:13:49;;;;;;;12.30;6.60;;;;;;;7.71;68.87;101467.48;104963;1271;61247;-75
2022/04/18 07:16:15;;;;;;;11.40;6.90;;;;;;;7.87;67.93;101469.05;105025;1271;61351;-73
2022/04/18 07:18:42;;;;;;;12.60;6.50;;;;;;;8.01;67.39;101468.70;105033;1271;74947;-71
2022/04/18 07:21:08;;;;;;;11.30;5.90;;;;;;;8.12;66.01;101470.89;104885;1272;71413;-72
2022/04/18 07:23:35;;;;;;;10.50;6.80;;;;;;;8.12;64.65;101469.98;105049;1271;72901;-71
2022/04/18 07:26:01;;;;;;;12.60;7.90;;;;;;;8.12;64.29;101466.61;105084;1272;61893;-72
2022/04/18 07:28:30;;;;;;;9.90;6.80;;;;;;;8.21;64.97;101470.98;105073;1274;61510;-69
2022/04/18 07:30:57;;;;;;;10.30;6.30;;;;;;;8.31;65.57;101467.59;105042;1271;76178;-72
2022/04/18 07:33:27;;;;;;;9.70;6.20;;;;;;;8.41;65.90;101471.02;105032;1271;70940;-70
2022/04/18 07:35:53;;;;;;;10.70;6.10;;;;;;;8.58;65.84;101470.39;104966;1271;73005;-71
2022/04/18 07:41:05;;;;;;;9.90;6.20;;;;;;;9.03;65.51;101472.73;105020;1271;61923;-74
2022/04/18 07:43:35;;;;;;;9.90;5.90;;;;;;;9.23;65.05;101473.98;105032;1271;61242;-73
2022/04/18 07:46:05;;;;;;;10.90;6.10;;;;;;;9.39;64.34;101470.69;105161;1271;71848;-73
2022/04/18 07:48:32;;;;;;;10.30;5.60;;;;;;;9.54;62.75;101472.19;104899;1272;72609;-71
2022/04/18 07:53:45;;;;;;;8.10;5.50;;;;;;;9.88;62.75;101468.58;104963;1271;61320;-73
2022/04/18 07:56:12;;;;;;;11.10;5.70;;;;;;;10.06;62.12;101466.07;104897;1272;61377;-71
2022/04/18 07:58:38;;;;;;;8.20;5.20;;;;;;;10.24;61.22;101464.98;104947;1272;71690;-68
2022/04/18 08:01:05;;;;;;;9.60;6.00;;;;;;;10.42;60.78;101463.55;105000;1271;61359;-73
2022/04/18 08:03:38;;;;;;;8.00;5.30;;;;;;;10.57;59.17;101462.04;104824;1274;61214;-72
2022/04/18 08:06:08;;;;;;;7.80;5.10;;;;;;;10.70;59.38;101458.09;104901;1271;61333;-72
2022/04/18 08:08:35;;;;;;;10.50;5.30;;;;;;;10.86;59.27;101463.67;104917;1274;76451;-70
2022/04/18 08:11:01;;;;;;;9.20;5.60;;;;;;;11.00;58.86;101461.84;104880;1274;71704;-72
2022/04/18 08:13:28;;;;;;;8.80;5.60;;;;;;;11.16;58.85;101468.36;104984;1274;74033;-72
2022/04/18 08:15:55;;;;;;;8.70;5.10;;;;;;;11.32;58.17;101465.48;105076;1271;61796;-71
2022/04/18 08:18:22;;;;;;;8.30;5.30;;;;;;;11.50;57.94;101467.86;104941;1271;61669;-72
2022/04/18 08:20:50;;;;;;;11.90;6.30;;;;;;;11.66;57.37;101467.77;104895;1274;76455;-73
2022/04/18 08:23:16;;;;;;;10.50;5.40;;;;;;;11.83;57.33;101467.55;104832;1274;71495;-75
2022/04/18 08:25:43;;;;;;;9.10;5.30;;;;;;;11.97;56.50;101463.23;104836;1272;61426;-75
2022/04/18 08:28:09;;;;;;;10.80;5.30;;;;;;;12.09;55.61;101457.89;104850;1271;61304;-74
2022/04/18 08:30:36;;;;;;;9.90;5.90;;;;;;;12.22;54.95;101461.70;104872;1271;61262;-73
2022/04/18 08:33:02;;;;;;;6.30;3.90;;;;;;;12.35;54.23;101459.60;104870;1274;61805;-73
2022/04/18 08:35:32;;;;;;;10.70;5.10;;;;;;;12.43;52.75;101458.70;105086;1270;71366;-76
2022/04/18 08:38:01;;;;;;;9.90;5.10;;;;;;;12.48;52.08;101460.85;105427;1271;73686;-72
2022/04/18 08:40:28;;;;;;;10.80;4.80;;;;;;;12.58;52.85;101462.80;105037;1271;62138;-73
2022/04/18 08:42:56;;;;;;;7.50;4.50;;;;;;;12.74;52.74;101458.08;105052;1271;61590;-71
2022/04/18 08:45:25;;;;;;;10.80;5.50;;;;;;;12.88;52.00;101458.03;104960;1271;75925;-71
2022/04/18 08:53:29;;;;;;;9.70;5.30;;;;;;;13.40;50.56;101452.91;105042;1270;61343;-70
2022/04/18 08:55:56;;;;;;;9.30;4.60;;;;;;;13.57;49.61;101451.36;105288;1271;61355;-73
2022/04/18 08:58:23;;;;;;;8.80;4.90;;;;;;;13.68;47.44;101454.94;105056;1270;76109;-74
2022/04/18 09:00:50;;;;;;;6.50;4.30;;;;;;;13.75;46.73;101453.94;105201;1271;70346;-75
2022/04/18 09:03:23;;;;;;;7.00;3.90;;;;;;;13.81;45.76;101449.99;105171;1271;72828;-74
2022/04/18 09:06:10;;;;;;;7.90;4.80;;;;;;;13.90;46.12;101445.23;104996;1271;61742;-71
2022/04/18 09:08:51;;;;;;;8.20;4.90;;;;;;;14.05;46.51;101441.25;105029;1271;61188;-74
2022/04/18 09:11:45;;;;;;;7.20;4.60;;;;;;;14.17;46.14;101440.10;104999;1271;75737;-69
2022/04/18 09:14:18;;;;;;;9.50;4.60;;;;;;;14.19;45.11;101438.86;105008;1271;71511;-69
2022/04/18 09:16:45;;;;;;;8.20;5.00;;;;;;;14.12;44.93;101431.77;104886;1271;73953;-70
2022/04/18 09:19:16;;;;;;;7.60;4.90;;;;;;;14.08;45.07;101425.75;104946;1272;61809;-70
2022/04/18 09:21:56;;;;;;;6.10;4.00;;;;;;;14.16;45.89;101426.58;105089;1271;61256;-70
2022/04/18 09:24:24;;;;;;;7.00;4.00;;;;;;;14.26;44.57;101418.04;105031;1271;75090;-69
2022/04/18 09:26:51;;;;;;;7.80;5.00;;;;;;;14.29;44.64;101420.59;104899;1271;72401;-71
2022/04/18 09:29:18;;;;;;;6.90;3.70;;;;;;;14.33;44.58;101415.17;104954;1271;72892;-71
2022/04/18 09:31:45;;;;;;;6.20;3.90;;;;;;;14.34;42.92;101416.27;105241;1271;61250;-70
2022/04/18 09:34:19;;;;;;;6.70;4.30;;;;;;;14.41;44.54;101416.01;104964;1271;61364;-70
2022/04/18 09:36:46;;;;;;;8.30;4.80;;;;;;;14.54;45.09;101413.66;105139;1271;76437;-67
2022/04/18 09:39:23;;;;;;;6.40;3.60;;;;;;;14.66;43.97;101411.39;105037;1271;71457;-70
2022/04/18 09:41:49;;;;;;;8.40;5.00;;;;;;;14.72;43.20;101405.09;104759;1271;442066;-69
2022/04/18 09:44:26;;;;;;;8.70;4.80;;;;;;;14.71;44.28;101403.72;104952;1271;61248;-68
2022/04/18 09:46:52;;;;;;;9.40;4.60;;;;;;;14.77;43.49;101403.27;105282;1271;61355;-70
2022/04/18 09:49:19;;;;;;;10.50;4.80;;;;;;;14.81;44.05;101397.82;105114;1271;62475;-70
2022/04/18 09:51:46;;;;;;;8.30;5.00;;;;;;;14.79;42.79;101393.60;105257;1271;61278;-69
2022/04/18 09:54:13;;;;;;;6.90;4.40;;;;;;;14.85;44.68;101395.43;105272;1271;73179;-69
2022/04/18 09:56:49;;;;;;;8.80;4.80;;;;;;;14.90;43.99;101392.63;105317;1271;61499;-70
2022/04/18 09:59:16;;;;;;;8.90;5.40;;;;;;;15.01;44.35;101387.39;105332;1271;61758;-71
2022/04/18 10:01:45;;;;;;;8.10;4.70;;;;;;;15.17;43.49;101385.33;105131;1271;76162;-71
2022/04/18 10:04:12;;;;;;;8.40;4.40;;;;;;;15.29;42.69;101381.09;105178;1270;71372;-71
2022/04/18 10:06:41;;;;;;;7.30;4.10;;;;;;;15.35;41.78;101377.89;104890;1271;61248;-65
2022/04/18 10:09:09;;;;;;;6.10;3.90;;;;;;;15.30;41.80;101380.11;105115;1271;61359;-69
2022/04/18 10:11:37;;;;;;;11.20;5.00;;;;;;;15.29;42.99;101376.69;104889;1271;61326;-69
2022/04/18 10:14:04;;;;;;;7.50;3.60;;;;;;;15.30;42.34;101368.55;105113;1271;76143;-68
2022/04/18 10:16:31;;;;;;;6.60;3.40;;;;;;;15.32;42.28;101367.38;104905;1271;72549;-68
2022/04/18 10:19:02;;;;;;;6.80;3.80;;;;;;;15.39;40.31;101362.30;105258;1271;74018;-68
2022/04/18 10:21:29;;;;;;;9.70;4.10;;;;;;;15.49;39.86;101356.27;104972;1271;61646;-69
2022/04/18 10:24:28;;;;;;;4.60;3.00;;;;;;;15.63;39.29;101350.86;105177;1271;61704;-69
2022/04/18 10:27:05;;;;;;;5.80;3.30;;;;;;;15.75;38.68;101351.23;105294;1271;75015;-67
2022/04/18 10:29:44;;;;;;;8.10;3.10;;;;;;;15.84;38.12;101347.52;104978;1271;72498;-69
2022/04/18 10:32:18;;;;;;;7.00;4.50;;;;;;;15.95;39.41;101346.08;105023;1271;73322;-70
2022/04/18 10:34:49;;;;;;;7.60;3.80;;;;;;;16.03;39.52;101340.90;105232;1271;61969;-67
2022/04/18 10:37:16;;;;;;;7.30;3.50;;;;;;;16.11;39.01;101340.31;104927;1271;61231;-70
2022/04/18 10:39:43;;;;;;;6.00;2.90;;;;;;;16.22;38.33;101332.19;104978;1271;76243;-72
2022/04/18 10:42:27;;;;;;;6.90;3.60;;;;;;;16.30;38.39;101332.65;104871;1271;61351;-69
2022/04/18 10:45:02;;;;;;;5.60;3.80;;;;;;;16.33;37.65;101329.56;104909;1271;73344;-71
2022/04/18 10:48:04;;;;;;;5.10;3.60;;;;;;;16.34;37.39;101333.07;104903;1270;61892;-70
2022/04/18 10:50:37;;;;;;;4.50;3.10;;;;;;;16.39;36.30;101331.33;104824;1273;61341;-69
2022/04/18 10:53:09;;;;;;;5.40;2.90;;;;;;;16.48;36.45;101329.20;104970;1272;75953;-70
2022/04/18 10:55:38;;;;;;;7.70;3.50;;;;;;;16.61;37.09;101330.20;105433;1269;70510;-68
2022/04/18 10:58:15;;;;;;;5.80;3.30;;;;;;;16.66;36.40;101324.90;105590;1270;74002;-66
2022/04/18 11:01:00;;;;;;;5.90;3.50;;;;;;;16.75;36.14;101324.73;105207;1271;61141;-65
2022/04/18 11:03:47;;;;;;;6.90;3.80;;;;;;;16.79;35.79;101317.95;105522;1270;61751;-65
2022/04/18 11:06:16;;;;;;;4.70;2.90;;;;;;;16.86;35.34;101317.51;105506;1271;76080;-68
2022/04/18 11:09:20;;;;;;;5.20;2.90;;;;;;;16.95;35.03;101316.59;105435;1271;71503;-65
2022/04/18 11:11:51;;;;;;;5.00;3.20;;;;;;;17.02;35.00;101315.16;105289;1271;72842;-69
2022/04/18 11:14:21;;;;;;;5.10;2.80;;;;;;;17.10;32.96;101314.06;105168;1271;62644;-70
2022/04/18 11:16:50;;;;;;;4.60;3.10;;;;;;;17.16;32.82;101309.67;105059;1271;61618;-69
2022/04/18 11:19:20;;;;;;;6.00;3.20;;;;;;;17.20;33.59;101307.83;105135;1271;75063;-68
2022/04/18 11:22:04;;;;;;;4.90;3.30;;;;;;;17.19;31.78;101304.98;104925;1271;74215;-68
2022/04/18 11:24:41;;;;;;;5.70;3.20;;;;;;;17.04;31.85;101298.14;105048;1271;74251;-70
2022/04/18 11:27:12;;;;;;;7.40;3.90;;;;;;;16.99;34.07;101298.91;105472;1271;61956;-68
2022/04/18 11:29:51;;;;;;;4.20;3.60;;;;;;;17.02;34.54;101298.71;105340;1271;61311;-68
2022/04/18 11:32:20;;;;;;;6.90;3.60;;;;;;;17.12;35.73;101297.00;104933;1271;75044;-68
2022/04/18 11:34:49;;;;;;;6.60;4.40;;;;;;;17.25;34.52;101290.51;104958;1272;71847;-69
2022/04/18 11:37:29;;;;;;;7.20;4.20;;;;;;;17.29;33.98;101283.55;105279;1269;74066;-68
2022/04/18 11:39:58;;;;;;;6.50;4.10;;;;;;;17.31;33.54;101280.90;105089;1271;61208;-68
2022/04/18 11:42:29;;;;;;;5.40;3.40;;;;;;;17.38;34.29;101276.02;105552;1271;61251;-70